sensor_id;sensor_type;location;lat;lon;timestamp;P1;durP1;ratioP1;P2;durP2;ratioP2
20476;SDS011;10397;50.948;11.092;2023-07-20T00:00:11;3.25;;;2.40;;
20476;SDS011;10397;50.948;11.092;2023-07-20T00:02:42;4.70;;;2.93;;
20476;SDS011;10397;50.948;11.092;2023-07-20T00:05:13;3.83;;;3.00;;
20476;SDS011;10397;50.948;11.092;2023-07-20T00:07:44;5.05;;;2.55;;
20476;SDS011;10397;50.948;11.092;2023-07-20T00:10:15;7.37;;;2.20;;
20476;SDS011;10397;50.948;11.092;2023-07-20T00:12:47;3.47;;;2.45;;
20476;SDS011;10397;50.948;11.092;2023-07-20T00:15:18;7.85;;;3.65;;
20476;SDS011;10397;50.948;11.092;2023-07-20T00:17:49;5.57;;;2.93;;
20476;SDS011;10397;50.948;11.092;2023-07-20T00:20:21;6.65;;;2.70;;
20476;SDS011;10397;50.948;11.092;2023-07-20T00:22:51;4.72;;;2.52;;
20476;SDS011;10397;50.948;11.092;2023-07-20T00:25:22;4.12;;;2.62;;
20476;SDS011;10397;50.948;11.092;2023-07-20T00:27:53;5.42;;;3.08;;
20476;SDS011;10397;50.948;11.092;2023-07-20T00:30:25;6.65;;;2.50;;
20476;SDS011;10397;50.948;11.092;2023-07-20T00:32:56;5.97;;;3.27;;
20476;SDS011;10397;50.948;11.092;2023-07-20T00:35:27;5.47;;;3.55;;
20476;SDS011;10397;50.948;11.092;2023-07-20T00:37:59;7.42;;;3.00;;
20476;SDS011;10397;50.948;11.092;2023-07-20T00:40:38;5.63;;;3.57;;
20476;SDS011;10397;50.948;11.092;2023-07-20T00:43:09;4.80;;;2.80;;
20476;SDS011;10397;50.948;11.092;2023-07-20T00:45:40;10.55;;;3.33;;
20476;SDS011;10397;50.948;11.092;2023-07-20T00:48:10;5.10;;;3.05;;
20476;SDS011;10397;50.948;11.092;2023-07-20T00:50:41;4.45;;;3.35;;
20476;SDS011;10397;50.948;11.092;2023-07-20T00:53:13;5.45;;;3.25;;
20476;SDS011;10397;50.948;11.092;2023-07-20T00:55:44;5.20;;;2.90;;
20476;SDS011;10397;50.948;11.092;2023-07-20T00:58:15;13.15;;;3.62;;
20476;SDS011;10397;50.948;11.092;2023-07-20T01:00:46;5.72;;;2.92;;
20476;SDS011;10397;50.948;11.092;2023-07-20T01:03:17;3.27;;;2.98;;
20476;SDS011;10397;50.948;11.092;2023-07-20T01:05:54;5.63;;;3.13;;
20476;SDS011;10397;50.948;11.092;2023-07-20T01:08:28;5.23;;;3.07;;
20476;SDS011;10397;50.948;11.092;2023-07-20T01:10:59;3.90;;;3.10;;
20476;SDS011;10397;50.948;11.092;2023-07-20T01:13:29;5.20;;;3.52;;
20476;SDS011;10397;50.948;11.092;2023-07-20T01:16:00;4.25;;;2.50;;
20476;SDS011;10397;50.948;11.092;2023-07-20T01:18:31;5.57;;;2.67;;
20476;SDS011;10397;50.948;11.092;2023-07-20T01:21:08;4.20;;;2.40;;
20476;SDS011;10397;50.948;11.092;2023-07-20T01:23:38;6.40;;;2.20;;
20476;SDS011;10397;50.948;11.092;2023-07-20T01:26:27;4.60;;;3.20;;
20476;SDS011;10397;50.948;11.092;2023-07-20T01:31:59;4.97;;;2.90;;
20476;SDS011;10397;50.948;11.092;2023-07-20T01:34:30;3.52;;;2.65;;
20476;SDS011;10397;50.948;11.092;2023-07-20T01:37:01;4.25;;;2.75;;
20476;SDS011;10397;50.948;11.092;2023-07-20T01:39:32;6.80;;;2.57;;
20476;SDS011;10397;50.948;11.092;2023-07-20T01:42:03;4.87;;;3.22;;
20476;SDS011;10397;50.948;11.092;2023-07-20T01:44:37;4.95;;;2.95;;
20476;SDS011;10397;50.948;11.092;2023-07-20T01:47:05;5.00;;;2.77;;
20476;SDS011;10397;50.948;11.092;2023-07-20T01:49:36;6.78;;;2.92;;
20476;SDS011;10397;50.948;11.092;2023-07-20T01:52:07;3.50;;;3.08;;
20476;SDS011;10397;50.948;11.092;2023-07-20T01:54:38;5.37;;;2.40;;
20476;SDS011;10397;50.948;11.092;2023-07-20T01:57:09;5.53;;;2.60;;
20476;SDS011;10397;50.948;11.092;2023-07-20T01:59:40;5.08;;;2.47;;
20476;SDS011;10397;50.948;11.092;2023-07-20T02:02:11;3.60;;;2.47;;
20476;SDS011;10397;50.948;11.092;2023-07-20T02:04:42;4.45;;;2.35;;
20476;SDS011;10397;50.948;11.092;2023-07-20T02:07:13;3.30;;;2.00;;
20476;SDS011;10397;50.948;11.092;2023-07-20T02:09:44;7.40;;;2.60;;
20476;SDS011;10397;50.948;11.092;2023-07-20T02:12:15;2.90;;;2.23;;
20476;SDS011;10397;50.948;11.092;2023-07-20T02:14:46;4.17;;;2.30;;
20476;SDS011;10397;50.948;11.092;2023-07-20T02:17:17;4.90;;;2.00;;
20476;SDS011;10397;50.948;11.092;2023-07-20T02:19:55;9.30;;;2.87;;
20476;SDS011;10397;50.948;11.092;2023-07-20T02:22:24;2.90;;;2.27;;
20476;SDS011;10397;50.948;11.092;2023-07-20T02:24:56;2.52;;;2.33;;
20476;SDS011;10397;50.948;11.092;2023-07-20T02:27:27;2.65;;;1.82;;
20476;SDS011;10397;50.948;11.092;2023-07-20T02:29:58;5.95;;;2.62;;
20476;SDS011;10397;50.948;11.092;2023-07-20T02:32:29;4.40;;;2.20;;
20476;SDS011;10397;50.948;11.092;2023-07-20T02:34:59;3.50;;;2.60;;
20476;SDS011;10397;50.948;11.092;2023-07-20T02:37:30;5.60;;;2.60;;
20476;SDS011;10397;50.948;11.092;2023-07-20T02:40:01;4.78;;;2.65;;
20476;SDS011;10397;50.948;11.092;2023-07-20T02:42:32;4.00;;;2.57;;
20476;SDS011;10397;50.948;11.092;2023-07-20T02:45:02;6.20;;;2.12;;
20476;SDS011;10397;50.948;11.092;2023-07-20T02:47:33;4.92;;;2.50;;
20476;SDS011;10397;50.948;11.092;2023-07-20T02:50:06;2.65;;;2.20;;
20476;SDS011;10397;50.948;11.092;2023-07-20T02:52:36;2.50;;;2.27;;
20476;SDS011;10397;50.948;11.092;2023-07-20T02:55:06;6.25;;;2.47;;
20476;SDS011;10397;50.948;11.092;2023-07-20T02:57:37;6.50;;;2.35;;
20476;SDS011;10397;50.948;11.092;2023-07-20T03:00:09;3.05;;;2.60;;
20476;SDS011;10397;50.948;11.092;2023-07-20T03:02:39;6.65;;;2.35;;
20476;SDS011;10397;50.948;11.092;2023-07-20T03:05:10;3.45;;;2.22;;
20476;SDS011;10397;50.948;11.092;2023-07-20T03:07:42;3.27;;;2.30;;
20476;SDS011;10397;50.948;11.092;2023-07-20T03:10:12;3.80;;;2.27;;
20476;SDS011;10397;50.948;11.092;2023-07-20T03:12:43;3.40;;;1.93;;
20476;SDS011;10397;50.948;11.092;2023-07-20T03:15:14;2.90;;;2.08;;
20476;SDS011;10397;50.948;11.092;2023-07-20T03:17:45;5.40;;;2.12;;
20476;SDS011;10397;50.948;11.092;2023-07-20T03:20:16;4.67;;;2.03;;
20476;SDS011;10397;50.948;11.092;2023-07-20T03:22:47;6.00;;;2.70;;
20476;SDS011;10397;50.948;11.092;2023-07-20T03:25:18;5.08;;;2.30;;
20476;SDS011;10397;50.948;11.092;2023-07-20T03:27:49;5.28;;;2.72;;
20476;SDS011;10397;50.948;11.092;2023-07-20T03:30:20;3.75;;;1.98;;
20476;SDS011;10397;50.948;11.092;2023-07-20T03:32:51;3.90;;;2.13;;
20476;SDS011;10397;50.948;11.092;2023-07-20T03:35:22;9.55;;;2.70;;
20476;SDS011;10397;50.948;11.092;2023-07-20T03:37:53;7.43;;;2.17;;
20476;SDS011;10397;50.948;11.092;2023-07-20T03:40:24;4.65;;;2.25;;
20476;SDS011;10397;50.948;11.092;2023-07-20T03:42:54;3.60;;;1.97;;
20476;SDS011;10397;50.948;11.092;2023-07-20T03:45:25;2.73;;;1.97;;
20476;SDS011;10397;50.948;11.092;2023-07-20T03:47:56;9.90;;;2.67;;
20476;SDS011;10397;50.948;11.092;2023-07-20T03:50:27;4.93;;;2.03;;
20476;SDS011;10397;50.948;11.092;2023-07-20T03:52:58;6.45;;;2.10;;
20476;SDS011;10397;50.948;11.092;2023-07-20T03:55:29;3.67;;;1.95;;
20476;SDS011;10397;50.948;11.092;2023-07-20T03:58:01;6.20;;;2.22;;
20476;SDS011;10397;50.948;11.092;2023-07-20T04:00:31;6.45;;;2.58;;
20476;SDS011;10397;50.948;11.092;2023-07-20T04:03:02;3.77;;;2.43;;
20476;SDS011;10397;50.948;11.092;2023-07-20T04:05:33;12.70;;;2.83;;
20476;SDS011;10397;50.948;11.092;2023-07-20T04:08:04;5.30;;;2.55;;
20476;SDS011;10397;50.948;11.092;2023-07-20T04:10:34;3.53;;;2.17;;
20476;SDS011;10397;50.948;11.092;2023-07-20T04:13:05;6.00;;;2.47;;
20476;SDS011;10397;50.948;11.092;2023-07-20T04:15:36;4.35;;;2.17;;
20476;SDS011;10397;50.948;11.092;2023-07-20T04:18:07;3.87;;;2.52;;
20476;SDS011;10397;50.948;11.092;2023-07-20T04:20:39;5.67;;;2.58;;
20476;SDS011;10397;50.948;11.092;2023-07-20T04:23:09;4.60;;;2.03;;
20476;SDS011;10397;50.948;11.092;2023-07-20T04:25:41;4.28;;;2.58;;
20476;SDS011;10397;50.948;11.092;2023-07-20T04:28:12;5.75;;;2.30;;
20476;SDS011;10397;50.948;11.092;2023-07-20T04:30:43;8.38;;;2.02;;
20476;SDS011;10397;50.948;11.092;2023-07-20T04:33:14;3.72;;;2.15;;
20476;SDS011;10397;50.948;11.092;2023-07-20T04:35:51;2.77;;;1.77;;
20476;SDS011;10397;50.948;11.092;2023-07-20T04:38:21;7.27;;;2.27;;
20476;SDS011;10397;50.948;11.092;2023-07-20T04:40:52;6.12;;;1.80;;
20476;SDS011;10397;50.948;11.092;2023-07-20T04:43:22;5.07;;;1.97;;
20476;SDS011;10397;50.948;11.092;2023-07-20T04:45:53;4.05;;;2.10;;
20476;SDS011;10397;50.948;11.092;2023-07-20T04:48:25;3.42;;;1.98;;
20476;SDS011;10397;50.948;11.092;2023-07-20T04:50:56;4.20;;;2.07;;
20476;SDS011;10397;50.948;11.092;2023-07-20T04:53:26;5.72;;;1.80;;
20476;SDS011;10397;50.948;11.092;2023-07-20T04:55:57;3.63;;;1.83;;
20476;SDS011;10397;50.948;11.092;2023-07-20T04:58:28;6.72;;;2.45;;
20476;SDS011;10397;50.948;11.092;2023-07-20T05:01:00;2.92;;;2.15;;
20476;SDS011;10397;50.948;11.092;2023-07-20T05:03:31;4.60;;;2.27;;
20476;SDS011;10397;50.948;11.092;2023-07-20T05:06:03;6.62;;;1.90;;
20476;SDS011;10397;50.948;11.092;2023-07-20T05:08:33;2.65;;;1.95;;
20476;SDS011;10397;50.948;11.092;2023-07-20T05:11:05;5.05;;;1.70;;
20476;SDS011;10397;50.948;11.092;2023-07-20T05:13:36;5.35;;;1.55;;
20476;SDS011;10397;50.948;11.092;2023-07-20T05:16:07;3.70;;;1.77;;
20476;SDS011;10397;50.948;11.092;2023-07-20T05:18:38;3.95;;;1.95;;
20476;SDS011;10397;50.948;11.092;2023-07-20T05:21:10;3.67;;;1.92;;
20476;SDS011;10397;50.948;11.092;2023-07-20T05:23:41;3.77;;;2.33;;
20476;SDS011;10397;50.948;11.092;2023-07-20T05:26:11;5.87;;;1.67;;
20476;SDS011;10397;50.948;11.092;2023-07-20T05:28:42;6.37;;;2.25;;
20476;SDS011;10397;50.948;11.092;2023-07-20T05:31:14;6.10;;;2.12;;
20476;SDS011;10397;50.948;11.092;2023-07-20T05:33:44;8.77;;;2.50;;
20476;SDS011;10397;50.948;11.092;2023-07-20T05:36:15;5.10;;;2.12;;
20476;SDS011;10397;50.948;11.092;2023-07-20T05:38:46;9.08;;;2.35;;
20476;SDS011;10397;50.948;11.092;2023-07-20T05:41:17;5.60;;;2.17;;
20476;SDS011;10397;50.948;11.092;2023-07-20T05:43:48;4.00;;;2.35;;
20476;SDS011;10397;50.948;11.092;2023-07-20T05:46:19;7.80;;;2.65;;
20476;SDS011;10397;50.948;11.092;2023-07-20T05:48:50;3.30;;;2.30;;
20476;SDS011;10397;50.948;11.092;2023-07-20T05:51:22;3.72;;;2.47;;
20476;SDS011;10397;50.948;11.092;2023-07-20T05:53:53;6.83;;;2.50;;
20476;SDS011;10397;50.948;11.092;2023-07-20T05:56:24;3.90;;;2.40;;
20476;SDS011;10397;50.948;11.092;2023-07-20T05:58:56;4.20;;;2.50;;
20476;SDS011;10397;50.948;11.092;2023-07-20T06:01:27;3.55;;;1.82;;
20476;SDS011;10397;50.948;11.092;2023-07-20T06:03:59;7.08;;;2.72;;
20476;SDS011;10397;50.948;11.092;2023-07-20T06:06:30;7.87;;;3.08;;
20476;SDS011;10397;50.948;11.092;2023-07-20T06:09:01;4.55;;;2.65;;
20476;SDS011;10397;50.948;11.092;2023-07-20T06:11:32;6.60;;;2.80;;
20476;SDS011;10397;50.948;11.092;2023-07-20T06:14:03;7.60;;;2.15;;
20476;SDS011;10397;50.948;11.092;2023-07-20T06:16:34;4.67;;;2.27;;
20476;SDS011;10397;50.948;11.092;2023-07-20T06:19:05;5.30;;;2.85;;
20476;SDS011;10397;50.948;11.092;2023-07-20T06:21:36;7.27;;;3.07;;
20476;SDS011;10397;50.948;11.092;2023-07-20T06:24:07;4.37;;;2.50;;
20476;SDS011;10397;50.948;11.092;2023-07-20T06:26:38;3.05;;;2.50;;
20476;SDS011;10397;50.948;11.092;2023-07-20T06:29:09;4.55;;;2.65;;
20476;SDS011;10397;50.948;11.092;2023-07-20T06:31:40;6.80;;;3.05;;
20476;SDS011;10397;50.948;11.092;2023-07-20T06:34:11;6.83;;;2.85;;
20476;SDS011;10397;50.948;11.092;2023-07-20T06:36:43;5.80;;;2.60;;
20476;SDS011;10397;50.948;11.092;2023-07-20T06:39:13;7.37;;;2.60;;
20476;SDS011;10397;50.948;11.092;2023-07-20T06:41:45;5.67;;;3.02;;
20476;SDS011;10397;50.948;11.092;2023-07-20T06:44:16;7.05;;;2.83;;
20476;SDS011;10397;50.948;11.092;2023-07-20T06:46:47;6.78;;;2.98;;
20476;SDS011;10397;50.948;11.092;2023-07-20T06:49:24;4.05;;;2.20;;
20476;SDS011;10397;50.948;11.092;2023-07-20T06:51:54;8.00;;;2.77;;
20476;SDS011;10397;50.948;11.092;2023-07-20T06:54:25;9.18;;;3.02;;
20476;SDS011;10397;50.948;11.092;2023-07-20T06:56:56;4.37;;;2.30;;
20476;SDS011;10397;50.948;11.092;2023-07-20T06:59:27;3.63;;;2.50;;
20476;SDS011;10397;50.948;11.092;2023-07-20T07:01:58;6.17;;;2.45;;
20476;SDS011;10397;50.948;11.092;2023-07-20T07:04:30;4.90;;;2.30;;
20476;SDS011;10397;50.948;11.092;2023-07-20T07:07:00;2.80;;;2.23;;
20476;SDS011;10397;50.948;11.092;2023-07-20T07:09:31;3.22;;;2.15;;
20476;SDS011;10397;50.948;11.092;2023-07-20T07:12:03;8.48;;;2.70;;
20476;SDS011;10397;50.948;11.092;2023-07-20T07:14:34;4.25;;;2.40;;
20476;SDS011;10397;50.948;11.092;2023-07-20T07:17:04;6.10;;;2.50;;
20476;SDS011;10397;50.948;11.092;2023-07-20T07:19:35;7.08;;;2.10;;
20476;SDS011;10397;50.948;11.092;2023-07-20T07:22:06;4.20;;;1.20;;
20476;SDS011;10397;50.948;11.092;2023-07-20T07:24:37;5.30;;;1.70;;
20476;SDS011;10397;50.948;11.092;2023-07-20T07:27:08;3.23;;;1.60;;
20476;SDS011;10397;50.948;11.092;2023-07-20T07:29:39;2.80;;;1.98;;
20476;SDS011;10397;50.948;11.092;2023-07-20T07:32:10;4.15;;;2.08;;
20476;SDS011;10397;50.948;11.092;2023-07-20T07:34:43;2.05;;;1.67;;
20476;SDS011;10397;50.948;11.092;2023-07-20T07:37:12;3.47;;;2.17;;
20476;SDS011;10397;50.948;11.092;2023-07-20T07:39:42;4.60;;;1.87;;
20476;SDS011;10397;50.948;11.092;2023-07-20T07:42:14;4.00;;;1.65;;
20476;SDS011;10397;50.948;11.092;2023-07-20T07:44:45;2.17;;;1.50;;
20476;SDS011;10397;50.948;11.092;2023-07-20T07:47:16;4.53;;;1.30;;
20476;SDS011;10397;50.948;11.092;2023-07-20T07:49:48;3.40;;;1.32;;
20476;SDS011;10397;50.948;11.092;2023-07-20T07:52:19;5.53;;;1.12;;
20476;SDS011;10397;50.948;11.092;2023-07-20T07:54:50;5.42;;;1.70;;
20476;SDS011;10397;50.948;11.092;2023-07-20T07:57:21;3.50;;;1.60;;
20476;SDS011;10397;50.948;11.092;2023-07-20T07:59:52;2.57;;;1.20;;
20476;SDS011;10397;50.948;11.092;2023-07-20T08:02:23;1.67;;;1.40;;
20476;SDS011;10397;50.948;11.092;2023-07-20T08:04:54;4.67;;;1.90;;
20476;SDS011;10397;50.948;11.092;2023-07-20T08:07:25;2.17;;;1.60;;
20476;SDS011;10397;50.948;11.092;2023-07-20T08:09:56;4.00;;;1.60;;
20476;SDS011;10397;50.948;11.092;2023-07-20T08:12:26;2.80;;;2.37;;
20476;SDS011;10397;50.948;11.092;2023-07-20T08:14:57;3.17;;;2.20;;
20476;SDS011;10397;50.948;11.092;2023-07-20T08:17:28;2.70;;;1.67;;
20476;SDS011;10397;50.948;11.092;2023-07-20T08:19:59;2.10;;;1.57;;
20476;SDS011;10397;50.948;11.092;2023-07-20T08:22:30;3.15;;;1.47;;
20476;SDS011;10397;50.948;11.092;2023-07-20T08:25:01;2.85;;;1.60;;
20476;SDS011;10397;50.948;11.092;2023-07-20T08:27:32;2.17;;;1.75;;
20476;SDS011;10397;50.948;11.092;2023-07-20T08:30:03;2.97;;;1.60;;
20476;SDS011;10397;50.948;11.092;2023-07-20T08:32:34;2.60;;;1.30;;
20476;SDS011;10397;50.948;11.092;2023-07-20T08:35:05;2.80;;;1.67;;
20476;SDS011;10397;50.948;11.092;2023-07-20T08:37:36;2.90;;;1.65;;
20476;SDS011;10397;50.948;11.092;2023-07-20T08:40:07;2.45;;;1.47;;
20476;SDS011;10397;50.948;11.092;2023-07-20T08:42:39;2.10;;;1.32;;
20476;SDS011;10397;50.948;11.092;2023-07-20T08:45:10;3.23;;;1.73;;
20476;SDS011;10397;50.948;11.092;2023-07-20T08:47:41;4.03;;;2.22;;
20476;SDS011;10397;50.948;11.092;2023-07-20T08:50:11;2.47;;;2.03;;
20476;SDS011;10397;50.948;11.092;2023-07-20T08:52:42;2.75;;;1.90;;
20476;SDS011;10397;50.948;11.092;2023-07-20T08:55:13;2.15;;;1.45;;
20476;SDS011;10397;50.948;11.092;2023-07-20T08:57:44;1.83;;;1.30;;
20476;SDS011;10397;50.948;11.092;2023-07-20T09:00:15;2.65;;;1.50;;
20476;SDS011;10397;50.948;11.092;2023-07-20T09:02:47;2.43;;;1.47;;
20476;SDS011;10397;50.948;11.092;2023-07-20T09:05:17;1.50;;;1.40;;
20476;SDS011;10397;50.948;11.092;2023-07-20T09:07:48;3.35;;;1.35;;
20476;SDS011;10397;50.948;11.092;2023-07-20T09:10:23;2.05;;;1.32;;
20476;SDS011;10397;50.948;11.092;2023-07-20T09:12:53;3.07;;;1.50;;
20476;SDS011;10397;50.948;11.092;2023-07-20T09:15:24;4.10;;;1.57;;
20476;SDS011;10397;50.948;11.092;2023-07-20T09:17:55;2.25;;;1.40;;
20476;SDS011;10397;50.948;11.092;2023-07-20T09:20:26;2.60;;;1.50;;
20476;SDS011;10397;50.948;11.092;2023-07-20T09:22:56;2.37;;;1.37;;
20476;SDS011;10397;50.948;11.092;2023-07-20T09:25:28;3.22;;;1.30;;
20476;SDS011;10397;50.948;11.092;2023-07-20T09:28:01;2.67;;;1.20;;
20476;SDS011;10397;50.948;11.092;2023-07-20T09:30:30;3.83;;;1.17;;
20476;SDS011;10397;50.948;11.092;2023-07-20T09:33:00;2.17;;;1.00;;
20476;SDS011;10397;50.948;11.092;2023-07-20T09:35:32;1.60;;;1.12;;
20476;SDS011;10397;50.948;11.092;2023-07-20T09:38:02;3.13;;;0.90;;
20476;SDS011;10397;50.948;11.092;2023-07-20T09:40:37;2.37;;;1.00;;
20476;SDS011;10397;50.948;11.092;2023-07-20T09:43:06;1.40;;;1.20;;
20476;SDS011;10397;50.948;11.092;2023-07-20T09:45:41;4.50;;;1.62;;
20476;SDS011;10397;50.948;11.092;2023-07-20T09:48:11;4.03;;;1.70;;
20476;SDS011;10397;50.948;11.092;2023-07-20T09:50:43;3.42;;;2.33;;
20476;SDS011;10397;50.948;11.092;2023-07-20T09:53:12;3.80;;;1.97;;
20476;SDS011;10397;50.948;11.092;2023-07-20T09:55:44;4.17;;;2.12;;
20476;SDS011;10397;50.948;11.092;2023-07-20T09:58:14;1.33;;;1.10;;
20476;SDS011;10397;50.948;11.092;2023-07-20T10:00:45;2.55;;;1.47;;
20476;SDS011;10397;50.948;11.092;2023-07-20T10:03:23;2.20;;;1.57;;
20476;SDS011;10397;50.948;11.092;2023-07-20T10:08:23;2.77;;;2.10;;
20476;SDS011;10397;50.948;11.092;2023-07-20T10:10:53;2.27;;;2.08;;
20476;SDS011;10397;50.948;11.092;2023-07-20T10:13:29;2.47;;;2.12;;
20476;SDS011;10397;50.948;11.092;2023-07-20T10:15:56;3.30;;;2.23;;
20476;SDS011;10397;50.948;11.092;2023-07-20T10:18:28;4.28;;;2.17;;
20476;SDS011;10397;50.948;11.092;2023-07-20T10:21:05;3.03;;;2.07;;
20476;SDS011;10397;50.948;11.092;2023-07-20T10:23:36;3.83;;;3.08;;
20476;SDS011;10397;50.948;11.092;2023-07-20T10:26:07;3.77;;;2.40;;
20476;SDS011;10397;50.948;11.092;2023-07-20T10:28:37;3.87;;;2.73;;
20476;SDS011;10397;50.948;11.092;2023-07-20T10:31:09;5.17;;;2.62;;
20476;SDS011;10397;50.948;11.092;2023-07-20T10:33:39;2.90;;;2.53;;
20476;SDS011;10397;50.948;11.092;2023-07-20T10:36:09;1.90;;;1.63;;
20476;SDS011;10397;50.948;11.092;2023-07-20T10:41:21;2.03;;;1.23;;
20476;SDS011;10397;50.948;11.092;2023-07-20T10:44:02;2.70;;;0.93;;
20476;SDS011;10397;50.948;11.092;2023-07-20T10:49:09;1.83;;;0.80;;
20476;SDS011;10397;50.948;11.092;2023-07-20T10:51:46;1.70;;;0.50;;
20476;SDS011;10397;50.948;11.092;2023-07-20T10:56:47;1.72;;;0.90;;
20476;SDS011;10397;50.948;11.092;2023-07-20T10:59:18;2.03;;;0.77;;
20476;SDS011;10397;50.948;11.092;2023-07-20T11:01:49;1.55;;;0.75;;
20476;SDS011;10397;50.948;11.092;2023-07-20T11:04:19;2.57;;;0.77;;
20476;SDS011;10397;50.948;11.092;2023-07-20T11:06:56;1.12;;;0.72;;
20476;SDS011;10397;50.948;11.092;2023-07-20T11:09:32;1.87;;;0.80;;
20476;SDS011;10397;50.948;11.092;2023-07-20T11:12:11;1.30;;;0.88;;
20476;SDS011;10397;50.948;11.092;2023-07-20T11:14:53;1.27;;;0.80;;
20476;SDS011;10397;50.948;11.092;2023-07-20T11:17:14;4.00;;;1.00;;
20476;SDS011;10397;50.948;11.092;2023-07-20T11:19:44;2.55;;;0.93;;
20476;SDS011;10397;50.948;11.092;2023-07-20T11:22:17;2.43;;;0.60;;
20476;SDS011;10397;50.948;11.092;2023-07-20T11:24:48;1.43;;;0.67;;
20476;SDS011;10397;50.948;11.092;2023-07-20T11:27:19;0.90;;;0.60;;
20476;SDS011;10397;50.948;11.092;2023-07-20T11:29:53;2.53;;;0.60;;
20476;SDS011;10397;50.948;11.092;2023-07-20T11:32:24;2.92;;;0.60;;
20476;SDS011;10397;50.948;11.092;2023-07-20T11:34:56;2.40;;;0.42;;
20476;SDS011;10397;50.948;11.092;2023-07-20T11:37:27;2.77;;;0.60;;
20476;SDS011;10397;50.948;11.092;2023-07-20T11:39:58;0.53;;;0.50;;
20476;SDS011;10397;50.948;11.092;2023-07-20T11:42:30;2.40;;;0.60;;
20476;SDS011;10397;50.948;11.092;2023-07-20T11:45:05;1.25;;;0.60;;
20476;SDS011;10397;50.948;11.092;2023-07-20T11:47:31;2.47;;;0.70;;
20476;SDS011;10397;50.948;11.092;2023-07-20T11:50:02;1.00;;;0.68;;
20476;SDS011;10397;50.948;11.092;2023-07-20T11:52:33;1.23;;;0.80;;
20476;SDS011;10397;50.948;11.092;2023-07-20T11:55:03;0.50;;;0.50;;
20476;SDS011;10397;50.948;11.092;2023-07-20T11:57:34;0.98;;;0.60;;
20476;SDS011;10397;50.948;11.092;2023-07-20T12:00:06;0.70;;;0.50;;
20476;SDS011;10397;50.948;11.092;2023-07-20T12:02:39;0.93;;;0.60;;
20476;SDS011;10397;50.948;11.092;2023-07-20T12:05:11;1.52;;;0.60;;
20476;SDS011;10397;50.948;11.092;2023-07-20T12:07:42;1.07;;;0.47;;
20476;SDS011;10397;50.948;11.092;2023-07-20T12:10:13;0.90;;;0.50;;
20476;SDS011;10397;50.948;11.092;2023-07-20T12:12:43;0.50;;;0.40;;
20476;SDS011;10397;50.948;11.092;2023-07-20T12:15:15;1.60;;;0.50;;
20476;SDS011;10397;50.948;11.092;2023-07-20T12:17:45;0.77;;;0.50;;
20476;SDS011;10397;50.948;11.092;2023-07-20T12:20:29;0.50;;;0.40;;
20476;SDS011;10397;50.948;11.092;2023-07-20T12:22:56;0.63;;;0.43;;
20476;SDS011;10397;50.948;11.092;2023-07-20T12:25:32;0.80;;;0.50;;
20476;SDS011;10397;50.948;11.092;2023-07-20T12:28:11;0.60;;;0.50;;
20476;SDS011;10397;50.948;11.092;2023-07-20T12:30:42;0.98;;;0.60;;
20476;SDS011;10397;50.948;11.092;2023-07-20T12:33:12;1.07;;;0.60;;
20476;SDS011;10397;50.948;11.092;2023-07-20T12:35:43;0.95;;;0.68;;
20476;SDS011;10397;50.948;11.092;2023-07-20T12:38:15;1.07;;;0.60;;
20476;SDS011;10397;50.948;11.092;2023-07-20T12:40:45;0.90;;;0.60;;
20476;SDS011;10397;50.948;11.092;2023-07-20T12:43:16;1.10;;;0.60;;
20476;SDS011;10397;50.948;11.092;2023-07-20T12:45:47;0.53;;;0.53;;
20476;SDS011;10397;50.948;11.092;2023-07-20T12:48:18;1.00;;;0.70;;
20476;SDS011;10397;50.948;11.092;2023-07-20T12:50:49;0.90;;;0.60;;
20476;SDS011;10397;50.948;11.092;2023-07-20T12:53:21;0.90;;;0.60;;
20476;SDS011;10397;50.948;11.092;2023-07-20T12:55:52;1.02;;;0.65;;
20476;SDS011;10397;50.948;11.092;2023-07-20T12:58:23;0.57;;;0.57;;
20476;SDS011;10397;50.948;11.092;2023-07-20T13:00:54;1.30;;;0.60;;
20476;SDS011;10397;50.948;11.092;2023-07-20T13:03:25;0.90;;;0.60;;
20476;SDS011;10397;50.948;11.092;2023-07-20T13:05:56;1.90;;;0.65;;
20476;SDS011;10397;50.948;11.092;2023-07-20T13:08:28;0.80;;;0.70;;
20476;SDS011;10397;50.948;11.092;2023-07-20T13:10:59;0.55;;;0.40;;
20476;SDS011;10397;50.948;11.092;2023-07-20T13:13:30;0.70;;;0.60;;
20476;SDS011;10397;50.948;11.092;2023-07-20T13:16:01;0.80;;;0.70;;
20476;SDS011;10397;50.948;11.092;2023-07-20T13:18:32;0.50;;;0.50;;
20476;SDS011;10397;50.948;11.092;2023-07-20T13:21:03;0.80;;;0.60;;
20476;SDS011;10397;50.948;11.092;2023-07-20T13:23:34;1.20;;;0.60;;
20476;SDS011;10397;50.948;11.092;2023-07-20T13:26:06;1.27;;;0.60;;
20476;SDS011;10397;50.948;11.092;2023-07-20T13:28:36;1.23;;;0.70;;
20476;SDS011;10397;50.948;11.092;2023-07-20T13:31:07;2.00;;;0.60;;
20476;SDS011;10397;50.948;11.092;2023-07-20T13:33:38;0.88;;;0.47;;
20476;SDS011;10397;50.948;11.092;2023-07-20T13:36:09;0.40;;;0.40;;
20476;SDS011;10397;50.948;11.092;2023-07-20T13:38:40;3.15;;;0.57;;
20476;SDS011;10397;50.948;11.092;2023-07-20T13:41:12;0.80;;;0.50;;
20476;SDS011;10397;50.948;11.092;2023-07-20T13:43:43;0.50;;;0.40;;
20476;SDS011;10397;50.948;11.092;2023-07-20T13:46:14;1.75;;;0.57;;
20476;SDS011;10397;50.948;11.092;2023-07-20T13:48:45;0.67;;;0.57;;
20476;SDS011;10397;50.948;11.092;2023-07-20T13:51:16;0.80;;;0.55;;
20476;SDS011;10397;50.948;11.092;2023-07-20T13:53:47;0.53;;;0.40;;
20476;SDS011;10397;50.948;11.092;2023-07-20T13:56:18;0.73;;;0.70;;
20476;SDS011;10397;50.948;11.092;2023-07-20T13:58:49;0.68;;;0.40;;
20476;SDS011;10397;50.948;11.092;2023-07-20T14:01:20;0.63;;;0.50;;
20476;SDS011;10397;50.948;11.092;2023-07-20T14:03:51;1.20;;;0.53;;
20476;SDS011;10397;50.948;11.092;2023-07-20T14:06:22;0.85;;;0.40;;
20476;SDS011;10397;50.948;11.092;2023-07-20T14:08:53;0.75;;;0.40;;
20476;SDS011;10397;50.948;11.092;2023-07-20T14:11:24;0.70;;;0.50;;
20476;SDS011;10397;50.948;11.092;2023-07-20T14:13:55;2.27;;;0.50;;
20476;SDS011;10397;50.948;11.092;2023-07-20T14:16:26;0.90;;;0.50;;
20476;SDS011;10397;50.948;11.092;2023-07-20T14:18:57;1.05;;;0.45;;
20476;SDS011;10397;50.948;11.092;2023-07-20T14:21:29;1.42;;;0.50;;
20476;SDS011;10397;50.948;11.092;2023-07-20T14:23:59;0.63;;;0.50;;
20476;SDS011;10397;50.948;11.092;2023-07-20T14:26:31;0.98;;;0.60;;
20476;SDS011;10397;50.948;11.092;2023-07-20T14:29:02;0.72;;;0.55;;
20476;SDS011;10397;50.948;11.092;2023-07-20T14:31:33;0.40;;;0.40;;
20476;SDS011;10397;50.948;11.092;2023-07-20T14:34:04;0.70;;;0.60;;
20476;SDS011;10397;50.948;11.092;2023-07-20T14:36:35;0.72;;;0.60;;
20476;SDS011;10397;50.948;11.092;2023-07-20T14:39:06;0.70;;;0.50;;
20476;SDS011;10397;50.948;11.092;2023-07-20T14:41:37;0.80;;;0.50;;
20476;SDS011;10397;50.948;11.092;2023-07-20T14:44:08;0.88;;;0.50;;
20476;SDS011;10397;50.948;11.092;2023-07-20T14:46:40;1.40;;;0.50;;
20476;SDS011;10397;50.948;11.092;2023-07-20T14:49:10;1.63;;;0.60;;
20476;SDS011;10397;50.948;11.092;2023-07-20T14:51:41;1.30;;;0.50;;
20476;SDS011;10397;50.948;11.092;2023-07-20T14:54:13;0.95;;;0.70;;
20476;SDS011;10397;50.948;11.092;2023-07-20T14:56:50;6.42;;;0.60;;
20476;SDS011;10397;50.948;11.092;2023-07-20T14:59:20;1.13;;;0.63;;
20476;SDS011;10397;50.948;11.092;2023-07-20T15:01:51;1.02;;;0.60;;
20476;SDS011;10397;50.948;11.092;2023-07-20T15:04:22;1.20;;;0.40;;
20476;SDS011;10397;50.948;11.092;2023-07-20T15:06:53;0.63;;;0.33;;
20476;SDS011;10397;50.948;11.092;2023-07-20T15:09:24;0.78;;;0.37;;